createdAt,value
2023-11-18T00:01:58.984Z,2.90
2023-11-18T00:04:26.393Z,2.97
2023-11-18T00:06:55.599Z,3.10
2023-11-18T00:09:26.099Z,3.07
2023-11-18T00:11:53.390Z,3.03
2023-11-18T00:14:22.153Z,2.90
2023-11-18T00:16:49.270Z,3.03
2023-11-18T00:19:16.275Z,3.13
2023-11-18T00:21:43.930Z,3.23
2023-11-18T00:24:11.380Z,3.40
2023-11-18T00:26:38.437Z,3.23
2023-11-18T00:29:05.697Z,3.17
2023-11-18T00:31:32.941Z,3.37
2023-11-18T00:34:00.031Z,3.10
2023-11-18T00:36:27.807Z,3.30
2023-11-18T00:38:54.753Z,3.03
2023-11-18T00:41:22.409Z,3.07
2023-11-18T00:43:49.531Z,3.20
2023-11-18T00:46:17.230Z,3.40
2023-11-18T00:48:44.349Z,3.40
2023-11-18T00:51:11.365Z,3.63
2023-11-18T00:53:38.292Z,3.20
2023-11-18T00:56:09.194Z,3.20
2023-11-18T00:58:41.726Z,3.43
2023-11-18T01:01:08.846Z,2.90
2023-11-18T01:03:36.244Z,3.33
2023-11-18T01:06:03.379Z,3.50
2023-11-18T01:08:30.762Z,2.90
2023-11-18T01:10:57.821Z,3.47
2023-11-18T01:13:24.753Z,3.30
2023-11-18T01:15:51.783Z,3.40
2023-11-18T01:18:19.262Z,3.07
2023-11-18T01:20:46.495Z,3.30
2023-11-18T01:23:13.652Z,3.30
2023-11-18T01:25:41.424Z,2.77
2023-11-18T01:28:08.458Z,3.20
2023-11-18T01:30:35.484Z,2.97
2023-11-18T01:33:02.589Z,3.20
2023-11-18T01:35:29.713Z,3.20
2023-11-18T01:37:56.966Z,3.00
2023-11-18T01:40:24.914Z,3.40
2023-11-18T01:42:52.027Z,3.00
2023-11-18T01:45:19.072Z,3.20
2023-11-18T01:47:49.403Z,3.20
2023-11-18T01:50:18.529Z,2.97
2023-11-18T01:52:47.255Z,2.80
2023-11-18T01:55:15.006Z,2.90
2023-11-18T01:57:45.157Z,3.40
2023-11-18T02:00:13.728Z,3.33
2023-11-18T02:02:41.398Z,3.03
2023-11-18T02:05:09.089Z,3.07
2023-11-18T02:07:39.859Z,3.13
2023-11-18T02:10:10.256Z,2.93
2023-11-18T02:12:50.952Z,2.70
2023-11-18T02:15:19.056Z,2.90
2023-11-18T02:17:46.950Z,2.63
2023-11-18T02:20:17.243Z,2.50
2023-11-18T02:22:45.057Z,2.60
2023-11-18T02:25:17.763Z,2.90
2023-11-18T02:27:46.366Z,3.63
2023-11-18T02:30:17.945Z,2.70
2023-11-18T02:32:54.928Z,2.67
2023-11-18T02:35:29.337Z,2.70
2023-11-18T02:37:57.675Z,3.07
2023-11-18T02:40:40.446Z,3.20
2023-11-18T02:43:08.502Z,3.60
2023-11-18T02:45:37.657Z,2.97
2023-11-18T02:48:07.672Z,3.30
2023-11-18T02:50:36.931Z,2.70
2023-11-18T02:53:04.169Z,2.70
2023-11-18T02:55:31.877Z,3.30
2023-11-18T02:57:59.109Z,2.90
2023-11-18T03:00:26.197Z,2.60
2023-11-18T03:02:53.877Z,2.57
2023-11-18T03:05:22.332Z,3.10
2023-11-18T03:07:55.057Z,2.77
2023-11-18T03:10:23.409Z,2.80
2023-11-18T03:12:54.857Z,2.60
2023-11-18T03:15:23.533Z,3.10
2023-11-18T03:17:52.176Z,2.90
2023-11-18T03:20:24.248Z,2.93
2023-11-18T03:22:53.273Z,2.80
2023-11-18T03:25:22.816Z,2.50
2023-11-18T03:27:49.819Z,2.90
2023-11-18T03:30:18.220Z,2.73
2023-11-18T03:32:45.541Z,3.00
2023-11-18T03:35:12.707Z,3.27
2023-11-18T03:37:42.241Z,3.13
2023-11-18T03:40:10.297Z,3.43
2023-11-18T03:42:38.346Z,3.20
2023-11-18T03:45:06.284Z,3.13
2023-11-18T03:47:34.988Z,3.50
2023-11-18T03:50:02.467Z,3.23
2023-11-18T03:52:30.409Z,3.47
2023-11-18T03:54:57.610Z,3.20
2023-11-18T03:57:27.690Z,3.40
2023-11-18T03:59:55.150Z,3.93
2023-11-18T04:02:22.136Z,3.90
2023-11-18T04:04:49.857Z,3.87
2023-11-18T04:07:16.882Z,3.77
2023-11-18T04:09:45.068Z,3.50
2023-11-18T04:12:12.070Z,3.57
2023-11-18T04:14:39.214Z,3.40
2023-11-18T04:17:07.363Z,4.03
2023-11-18T04:19:36.151Z,3.80
2023-11-18T04:22:03.256Z,4.13
2023-11-18T04:24:30.930Z,4.00
2023-11-18T04:26:58.750Z,4.03
2023-11-18T04:29:25.664Z,4.00
2023-11-18T04:31:54.631Z,4.57
2023-11-18T04:34:21.849Z,3.83
2023-11-18T04:36:48.844Z,3.13
2023-11-18T04:39:17.191Z,3.30
2023-11-18T04:41:44.871Z,3.23
2023-11-18T04:44:11.884Z,3.50
2023-11-18T04:46:39.068Z,3.80
2023-11-18T04:49:06.713Z,3.70
2023-11-18T04:51:34.241Z,3.70
2023-11-18T04:54:01.765Z,3.87
2023-11-18T04:56:28.808Z,3.40
2023-11-18T04:58:55.883Z,3.73
2023-11-18T05:01:23.132Z,4.00
2023-11-18T05:03:50.377Z,4.07
2023-11-18T05:06:17.403Z,3.50
2023-11-18T05:08:44.427Z,3.70
2023-11-18T05:11:11.572Z,3.67
2023-11-18T05:13:41.263Z,4.70
2023-11-18T05:16:08.721Z,4.90
2023-11-18T05:18:38.124Z,4.20
2023-11-18T05:21:08.647Z,4.67
2023-11-18T05:23:39.586Z,4.73
2023-11-18T05:26:07.382Z,4.53
2023-11-18T05:28:35.280Z,4.50
2023-11-18T05:31:06.116Z,4.70
2023-11-18T05:33:35.656Z,4.60
2023-11-18T05:36:06.350Z,4.17
2023-11-18T05:38:36.401Z,4.47
2023-11-18T05:41:05.244Z,5.00
2023-11-18T05:43:42.291Z,4.97
2023-11-18T05:46:23.800Z,4.43
2023-11-18T05:48:51.307Z,4.23
2023-11-18T05:51:26.362Z,4.03
2023-11-18T05:53:54.056Z,4.60
2023-11-18T05:56:24.216Z,4.67
2023-11-18T05:58:54.909Z,4.30
2023-11-18T06:01:23.197Z,4.10
2023-11-18T06:03:51.529Z,3.97
2023-11-18T06:06:22.178Z,3.57
2023-11-18T06:08:52.085Z,4.03
2023-11-18T06:11:20.473Z,3.07
2023-11-18T06:13:52.757Z,3.50
2023-11-18T06:16:24.109Z,3.67
2023-11-18T06:18:56.130Z,3.57
2023-11-18T06:21:32.247Z,3.20
2023-11-18T06:24:00.333Z,2.97
2023-11-18T06:26:29.046Z,2.90
2023-11-18T06:28:56.956Z,3.13
2023-11-18T06:31:27.365Z,2.83
2023-11-18T06:33:54.662Z,3.20
2023-11-18T06:36:22.846Z,2.90
2023-11-18T06:38:51.431Z,2.60
2023-11-18T06:41:21.007Z,2.37
2023-11-18T06:43:58.992Z,2.73
2023-11-18T06:46:34.680Z,2.27
2023-11-18T06:49:05.293Z,1.97
2023-11-18T06:51:37.177Z,2.20
2023-11-18T06:54:12.260Z,1.93
2023-11-18T06:56:46.404Z,2.00
2023-11-18T06:59:16.186Z,1.63
2023-11-18T07:01:46.179Z,2.17
2023-11-18T07:04:16.140Z,2.10
2023-11-18T07:06:44.711Z,1.70
2023-11-18T07:09:19.020Z,1.90
2023-11-18T07:11:48.326Z,1.70
2023-11-18T07:14:16.482Z,1.77
2023-11-18T07:16:44.336Z,2.00
2023-11-18T07:19:18.969Z,1.63
2023-11-18T07:21:45.967Z,1.63
2023-11-18T07:24:13.505Z,1.87
2023-11-18T07:26:40.678Z,1.73
2023-11-18T07:29:10.788Z,1.40
2023-11-18T07:31:37.883Z,1.60
2023-11-18T07:34:06.945Z,1.23
2023-11-18T07:36:34.714Z,1.30
2023-11-18T07:39:02.888Z,1.10
2023-11-18T07:41:33.711Z,1.13
2023-11-18T07:44:01.885Z,0.87
2023-11-18T07:46:32.569Z,0.90
2023-11-18T07:49:02.621Z,1.30
2023-11-18T07:51:33.199Z,0.83
2023-11-18T07:54:00.500Z,1.00
2023-11-18T07:56:30.202Z,1.67
2023-11-18T07:59:00.005Z,1.27
2023-11-18T08:01:28.500Z,0.93
2023-11-18T08:03:55.660Z,0.93
2023-11-18T08:06:22.916Z,0.90
2023-11-18T08:08:49.896Z,1.10
2023-11-18T08:11:18.308Z,0.90
2023-11-18T08:13:45.359Z,0.93
2023-11-18T08:16:14.040Z,1.00
2023-11-18T08:18:41.097Z,0.83
2023-11-18T08:21:08.667Z,0.70
2023-11-18T08:23:35.702Z,0.80
2023-11-18T08:26:03.045Z,0.93
2023-11-18T08:28:30.188Z,0.87
2023-11-18T08:30:57.430Z,1.00
2023-11-18T08:33:25.658Z,0.60
2023-11-18T08:35:52.722Z,1.00
2023-11-18T08:38:20.937Z,0.60
2023-11-18T08:40:50.011Z,0.70
2023-11-18T08:43:17.979Z,1.23
2023-11-18T08:45:45.872Z,0.80
2023-11-18T08:48:13.102Z,0.77
2023-11-18T08:50:44.321Z,0.90
2023-11-18T08:53:13.304Z,0.77
2023-11-18T08:55:41.989Z,0.83
2023-11-18T08:58:23.470Z,0.87
2023-11-18T09:01:07.576Z,0.90
2023-11-18T09:03:38.100Z,0.83
2023-11-18T09:06:13.287Z,0.90
2023-11-18T09:08:43.729Z,0.77
2023-11-18T09:11:16.039Z,0.77
2023-11-18T09:13:50.700Z,0.90
2023-11-18T09:16:17.819Z,1.10
2023-11-18T09:18:48.057Z,1.47
2023-11-18T09:21:20.699Z,1.20
2023-11-18T09:23:50.530Z,1.53
2023-11-18T09:26:18.030Z,1.87
2023-11-18T09:28:46.337Z,1.50
2023-11-18T09:31:13.731Z,1.47
2023-11-18T09:33:48.146Z,1.47
2023-11-18T09:36:15.337Z,1.30
2023-11-18T09:38:43.613Z,1.50
2023-11-18T09:41:14.570Z,1.83
2023-11-18T09:43:44.453Z,1.60
2023-11-18T09:46:15.867Z,1.63
2023-11-18T09:48:54.480Z,1.57
2023-11-18T09:51:23.666Z,1.40
2023-11-18T09:53:55.421Z,1.17
2023-11-18T09:56:47.156Z,1.47
2023-11-18T09:59:31.210Z,2.87
2023-11-18T10:01:59.595Z,1.30
2023-11-18T10:04:29.723Z,1.17
2023-11-18T10:06:57.912Z,1.37
2023-11-18T10:09:54.686Z,1.30
2023-11-18T10:12:25.193Z,1.10
2023-11-18T10:14:53.424Z,1.20
2023-11-18T10:17:23.380Z,1.10
2023-11-18T10:20:14.092Z,1.00
2023-11-18T10:22:42.033Z,1.13
2023-11-18T10:25:09.319Z,1.30
2023-11-18T10:27:36.252Z,1.70
2023-11-18T10:30:06.065Z,1.70
2023-11-18T10:32:37.487Z,1.13
2023-11-18T10:35:11.257Z,1.27
2023-11-18T10:37:44.937Z,1.33
2023-11-18T10:40:16.042Z,1.57
2023-11-18T10:42:48.017Z,1.17
2023-11-18T10:45:26.307Z,1.63
2023-11-18T10:47:57.129Z,1.23
2023-11-18T10:50:24.367Z,1.30
2023-11-18T10:52:52.352Z,1.70
2023-11-18T10:55:20.472Z,1.40
2023-11-18T10:57:47.681Z,2.10
2023-11-18T11:00:15.905Z,1.70
2023-11-18T11:02:43.570Z,1.53
2023-11-18T11:05:20.935Z,1.57
2023-11-18T11:07:50.548Z,1.60
2023-11-18T11:10:26.799Z,1.70
2023-11-18T11:12:56.430Z,1.40
2023-11-18T11:15:32.665Z,1.43
2023-11-18T11:18:16.229Z,1.97
2023-11-18T11:20:54.642Z,1.40
2023-11-18T11:23:40.386Z,1.57
2023-11-18T11:26:35.892Z,1.50
2023-11-18T11:29:30.367Z,1.20
2023-11-18T11:32:25.384Z,1.10
2023-11-18T11:34:57.975Z,1.60
2023-11-18T11:37:31.587Z,1.80
2023-11-18T11:40:00.818Z,1.97
2023-11-18T11:42:28.446Z,3.00
2023-11-18T11:44:56.941Z,1.10
2023-11-18T11:47:24.766Z,1.03
2023-11-18T11:50:33.095Z,1.10
2023-11-18T11:53:09.034Z,1.37
2023-11-18T11:56:06.261Z,1.10
2023-11-18T11:58:40.476Z,1.20
2023-11-18T12:01:19.661Z,1.37
2023-11-18T12:03:49.207Z,1.30
2023-11-18T12:06:24.646Z,1.30
2023-11-18T12:08:56.209Z,1.33
2023-11-18T12:11:23.602Z,1.20
2023-11-18T12:14:14.517Z,1.20
2023-11-18T12:17:22.579Z,1.07
2023-11-18T12:19:51.980Z,0.93
2023-11-18T12:22:27.777Z,0.97
2023-11-18T12:25:05.754Z,1.00
2023-11-18T12:27:42.089Z,1.30
2023-11-18T12:30:19.399Z,1.00
2023-11-18T12:33:02.583Z,1.17
2023-11-18T12:35:31.200Z,1.10
2023-11-18T12:38:29.854Z,1.20
2023-11-18T12:41:01.195Z,1.50
2023-11-18T12:43:52.599Z,1.13
2023-11-18T12:46:36.717Z,1.17
2023-11-18T12:49:04.157Z,1.23
2023-11-18T12:51:35.741Z,1.70
2023-11-18T12:54:03.931Z,1.30
2023-11-18T12:56:31.906Z,2.40
2023-11-18T12:58:59.228Z,1.17
2023-11-18T13:01:28.641Z,1.20
2023-11-18T13:03:56.578Z,1.13
2023-11-18T13:06:27.947Z,1.60
2023-11-18T13:08:55.812Z,1.20
2023-11-18T13:11:24.914Z,1.20
2023-11-18T13:13:55.453Z,1.37
2023-11-18T13:16:23.532Z,1.80
2023-11-18T13:18:51.033Z,1.50
2023-11-18T13:21:19.755Z,1.80
2023-11-18T13:23:51.685Z,1.60
2023-11-18T13:26:20.572Z,1.60
2023-11-18T13:28:49.335Z,1.70
2023-11-18T13:31:18.635Z,1.63
2023-11-18T13:33:48.961Z,1.90
2023-11-18T13:36:16.263Z,1.50
2023-11-18T13:38:43.384Z,2.30
2023-11-18T13:41:10.976Z,2.23
2023-11-18T13:43:53.864Z,2.33
2023-11-18T13:46:21.243Z,2.23
2023-11-18T13:48:53.162Z,2.07
2023-11-18T13:51:22.748Z,2.27
2023-11-18T13:53:49.877Z,1.67
2023-11-18T13:56:19.379Z,2.57
2023-11-18T13:58:46.802Z,1.90
2023-11-18T14:01:13.819Z,1.90
2023-11-18T14:03:41.925Z,1.63
2023-11-18T14:06:11.875Z,2.03
2023-11-18T14:08:40.138Z,1.80
2023-11-18T14:11:15.137Z,1.97
2023-11-18T14:13:45.336Z,1.90
2023-11-18T14:16:13.989Z,1.60
2023-11-18T14:18:42.977Z,1.50
2023-11-18T14:21:10.878Z,1.60
2023-11-18T14:23:39.081Z,1.83
2023-11-18T14:26:08.794Z,2.00
2023-11-18T14:28:36.303Z,1.60
2023-11-18T14:31:09.027Z,2.13
2023-11-18T14:33:36.200Z,1.67
2023-11-18T14:36:06.471Z,2.10
2023-11-18T14:38:35.777Z,1.30
2023-11-18T14:41:04.017Z,1.60
2023-11-18T14:43:31.629Z,1.83
2023-11-18T14:45:59.078Z,1.50
2023-11-18T14:48:26.160Z,1.60
2023-11-18T14:50:53.250Z,1.70
2023-11-18T14:53:20.947Z,1.70
2023-11-18T14:55:47.986Z,1.73
2023-11-18T14:58:14.997Z,1.70
2023-11-18T15:00:43.773Z,1.50
2023-11-18T15:03:11.517Z,1.40
2023-11-18T15:05:39.800Z,1.90
2023-11-18T15:08:10.626Z,1.83
2023-11-18T15:10:40.984Z,1.60
2023-11-18T15:13:08.016Z,1.77
2023-11-18T15:15:35.797Z,1.83
2023-11-18T15:18:06.669Z,1.60
2023-11-18T15:20:33.858Z,1.90
2023-11-18T15:23:01.565Z,2.50
2023-11-18T15:25:28.754Z,1.97
2023-11-18T15:27:57.366Z,1.83
2023-11-18T15:30:25.871Z,2.00
2023-11-18T15:32:53.218Z,2.37
2023-11-18T15:35:22.416Z,2.00
2023-11-18T15:37:49.929Z,2.10
2023-11-18T15:40:20.886Z,2.20
2023-11-18T15:42:52.198Z,1.90
2023-11-18T15:45:21.240Z,2.20
2023-11-18T15:47:49.681Z,2.00
2023-11-18T15:50:17.886Z,1.80
2023-11-18T15:52:55.042Z,2.10
2023-11-18T15:55:23.003Z,1.87
2023-11-18T15:57:54.832Z,1.90
2023-11-18T16:00:26.122Z,1.77
2023-11-18T16:03:01.776Z,2.17
2023-11-18T16:05:35.331Z,1.70
2023-11-18T16:08:04.839Z,1.83
2023-11-18T16:10:32.622Z,2.07
2023-11-18T16:13:00.672Z,1.90
2023-11-18T16:15:29.505Z,1.97
2023-11-18T16:17:58.889Z,1.90
2023-11-18T16:20:29.299Z,2.20
2023-11-18T16:22:58.450Z,1.67
2023-11-18T16:25:28.968Z,1.77
2023-11-18T16:27:59.551Z,2.20
2023-11-18T16:30:30.528Z,1.50
2023-11-18T16:32:59.372Z,2.23
2023-11-18T16:35:27.376Z,2.20
2023-11-18T16:37:57.864Z,1.80
2023-11-18T16:40:25.888Z,1.97
2023-11-18T16:42:57.958Z,1.70
2023-11-18T16:45:26.344Z,1.70
2023-11-18T16:47:55.271Z,2.03
2023-11-18T16:50:27.981Z,1.60
2023-11-18T16:52:57.100Z,2.03
2023-11-18T16:55:24.973Z,1.90
2023-11-18T16:57:54.448Z,2.00
2023-11-18T17:00:25.667Z,4.00
2023-11-18T17:03:00.025Z,2.13
2023-11-18T17:05:32.397Z,1.60
2023-11-18T17:08:01.447Z,1.50
2023-11-18T17:10:29.574Z,1.83
2023-11-18T17:12:59.451Z,3.03
2023-11-18T17:15:26.728Z,1.50
2023-11-18T17:18:02.542Z,1.77
2023-11-18T17:20:31.246Z,2.50
2023-11-18T17:22:58.355Z,1.63
2023-11-18T17:25:32.801Z,1.77
2023-11-18T17:28:01.360Z,1.40
2023-11-18T17:30:33.163Z,1.60
2023-11-18T17:33:00.241Z,1.70
2023-11-18T17:35:27.740Z,1.50
2023-11-18T17:37:54.799Z,1.80
2023-11-18T17:40:22.973Z,1.90
2023-11-18T17:42:54.605Z,2.20
2023-11-18T17:45:22.210Z,2.07
2023-11-18T17:47:49.321Z,2.20
2023-11-18T17:50:18.732Z,2.30
2023-11-18T17:52:52.284Z,2.30
2023-11-18T17:55:19.569Z,2.50
2023-11-18T17:57:47.876Z,1.93
2023-11-18T18:00:21.489Z,2.10
2023-11-18T18:02:50.018Z,2.20
2023-11-18T18:05:17.872Z,2.37
2023-11-18T18:07:44.967Z,2.00
2023-11-18T18:10:15.192Z,2.30
2023-11-18T18:12:45.172Z,2.27
2023-11-18T18:15:14.445Z,2.23
2023-11-18T18:17:41.683Z,2.03
2023-11-18T18:20:10.657Z,2.13
2023-11-18T18:22:39.191Z,1.80
2023-11-18T18:25:07.460Z,2.00
2023-11-18T18:27:35.226Z,1.90
2023-11-18T18:30:03.380Z,1.50
2023-11-18T18:32:30.686Z,1.90
2023-11-18T18:34:58.976Z,1.97
2023-11-18T18:37:27.270Z,1.83
2023-11-18T18:39:56.337Z,1.77
2023-11-18T18:42:24.190Z,2.63
2023-11-18T18:44:51.326Z,1.90
2023-11-18T18:55:54.307Z,2.17
2023-11-18T18:58:22.192Z,2.10
2023-11-18T19:00:51.392Z,1.77
2023-11-18T19:03:18.561Z,1.90
2023-11-18T19:05:45.767Z,2.10
2023-11-18T19:08:12.975Z,1.90
2023-11-18T19:10:39.944Z,1.83
2023-11-18T19:13:06.990Z,2.10
2023-11-18T19:15:34.112Z,2.37
2023-11-18T19:18:01.161Z,2.17
2023-11-18T19:20:28.215Z,2.40
2023-11-18T19:22:55.306Z,1.80
2023-11-18T19:25:22.352Z,1.60
2023-11-18T19:27:49.392Z,1.80
2023-11-18T19:30:16.516Z,1.70
2023-11-18T19:32:47.029Z,2.27
2023-11-18T19:35:15.846Z,1.80
2023-11-18T19:37:44.016Z,2.23
2023-11-18T19:40:12.409Z,2.30
2023-11-18T19:42:39.569Z,2.10
2023-11-18T19:45:09.366Z,2.40
2023-11-18T19:47:36.998Z,1.90
2023-11-18T19:50:05.041Z,2.10
2023-11-18T19:52:32.958Z,2.33
2023-11-18T19:55:00.004Z,2.30
2023-11-18T19:57:27.257Z,1.80
2023-11-18T19:59:54.334Z,2.20
2023-11-18T20:02:22.216Z,2.10
2023-11-18T20:04:49.177Z,2.30
2023-11-18T20:07:16.470Z,1.77
2023-11-18T20:09:43.723Z,1.77
2023-11-18T20:12:10.724Z,2.37
2023-11-18T20:14:41.193Z,2.37
2023-11-18T20:17:11.129Z,2.33
2023-11-18T20:19:39.734Z,2.27
2023-11-18T20:22:06.918Z,2.70
2023-11-18T20:24:35.824Z,2.30
2023-11-18T20:27:03.262Z,2.30
2023-11-18T20:29:30.415Z,2.60
2023-11-18T20:31:58.270Z,2.60
2023-11-18T20:34:26.151Z,2.60
2023-11-18T20:36:53.142Z,2.40
2023-11-18T20:39:20.139Z,2.33
2023-11-18T20:41:48.714Z,2.47
2023-11-18T20:44:17.709Z,2.50
2023-11-18T20:46:46.516Z,2.37
2023-11-18T20:49:13.752Z,2.40
2023-11-18T20:51:40.859Z,2.70
2023-11-18T20:54:08.270Z,2.50
2023-11-18T20:56:35.638Z,2.30
2023-11-18T20:59:03.052Z,2.47
2023-11-18T21:01:30.318Z,2.30
2023-11-18T21:03:57.359Z,2.40
2023-11-18T21:06:24.596Z,2.17
2023-11-18T21:08:51.844Z,2.37
2023-11-18T21:11:19.108Z,2.37
2023-11-18T21:13:46.696Z,2.73
2023-11-18T21:16:14.157Z,2.37
2023-11-18T21:18:41.417Z,2.43
2023-11-18T21:21:09.881Z,3.80
2023-11-18T21:23:36.950Z,2.37
2023-11-18T21:26:04.161Z,2.70
2023-11-18T21:28:31.195Z,2.43
2023-11-18T21:30:58.787Z,2.40
2023-11-18T21:33:25.843Z,2.40
2023-11-18T21:35:52.844Z,2.17
2023-11-18T21:38:20.173Z,3.70
2023-11-18T21:40:47.611Z,2.47
2023-11-18T21:43:14.849Z,2.33
2023-11-18T21:45:43.101Z,2.40
2023-11-18T21:48:10.113Z,1.97
2023-11-18T21:50:37.949Z,2.10
2023-11-18T21:53:07.618Z,2.30
2023-11-18T21:55:34.725Z,2.50
2023-11-18T21:58:02.563Z,2.37
2023-11-18T22:00:29.583Z,2.30
2023-11-18T22:02:56.754Z,2.40
2023-11-18T22:05:24.427Z,2.20
2023-11-18T22:07:51.982Z,2.03
2023-11-18T22:10:20.127Z,1.73
2023-11-18T22:12:52.772Z,1.97
2023-11-18T22:15:23.194Z,1.67
2023-11-18T22:17:53.051Z,1.83
2023-11-18T22:20:25.746Z,2.00
2023-11-18T22:22:53.000Z,1.93
2023-11-18T22:25:20.685Z,2.10
2023-11-18T22:27:48.828Z,2.30
2023-11-18T22:30:17.761Z,2.20
2023-11-18T22:32:45.042Z,2.20
2023-11-18T22:35:12.114Z,2.20
2023-11-18T22:37:39.158Z,2.40
2023-11-18T22:40:10.268Z,2.00
2023-11-18T22:42:38.797Z,2.00
2023-11-18T22:45:17.028Z,1.80
2023-11-18T22:47:52.778Z,2.20
2023-11-18T22:50:25.063Z,2.07
2023-11-18T22:52:54.412Z,2.07
2023-11-18T22:55:23.180Z,1.90
2023-11-18T22:57:51.023Z,1.80
2023-11-18T23:00:31.981Z,1.70
2023-11-18T23:02:59.671Z,1.50
2023-11-18T23:05:27.219Z,1.70
2023-11-18T23:07:57.528Z,2.20
2023-11-18T23:10:28.265Z,1.40
2023-11-18T23:12:56.215Z,1.93
2023-11-18T23:15:25.693Z,1.70
2023-11-18T23:17:53.307Z,2.40
2023-11-18T23:20:22.279Z,1.47
2023-11-18T23:22:51.797Z,1.50
2023-11-18T23:25:20.628Z,1.50
2023-11-18T23:27:48.053Z,1.33
2023-11-18T23:30:15.119Z,1.40
2023-11-18T23:32:43.593Z,1.73
2023-11-18T23:35:10.795Z,2.10
2023-11-18T23:37:37.904Z,1.70
2023-11-18T23:40:12.815Z,1.80
2023-11-18T23:42:41.027Z,1.63
2023-11-18T23:45:08.738Z,2.00
2023-11-18T23:47:35.859Z,2.10
2023-11-18T23:50:03.361Z,2.07
2023-11-18T23:52:30.665Z,2.07
2023-11-18T23:54:57.731Z,1.90
2023-11-18T23:57:24.880Z,2.10
2023-11-18T23:59:52.397Z,2.20
